DAL1662 KSLC-KLAS
Flight info
| Callsign | DAL1662 |
|---|---|
| Flight time | 0h 51m |
| Altitude | 36000 |
| Route | ARCHZ1 MLF STEWW CHOWW4 |
| Aircraft | A321/M-SDE3FGHIRWY/LB1 |
Departure
| Time | 2026-05-06 17:32 |
|---|---|
| Airport | Salt Lake City International Airport (KSLC) |
Arrival
| Time | 2026-05-06 18:23 |
|---|---|
| Airport | Harry Reid International Airport (KLAS) |
| Time | Latitude | Longitude | Altitude | Speed | Heading |
|---|---|---|---|---|---|
| 2026-05-06 17:01 | 40.78479 | -111.98992 | 4231 ft | 0 kts | 355° |
| 2026-05-06 17:23 | 40.78477 | -111.98992 | 4231 ft | 3 kts | 355° |
| 2026-05-06 17:23 | 40.78456 | -111.98989 | 4230 ft | 4 kts | 353° |
| 2026-05-06 17:23 | 40.78439 | -111.98979 | 4231 ft | 2 kts | 310° |
| 2026-05-06 17:24 | 40.78425 | -111.98958 | 4229 ft | 0 kts | 310° |
| 2026-05-06 17:26 | 40.78426 | -111.98965 | 4230 ft | 3 kts | 281° |
| 2026-05-06 17:26 | 40.78427 | -111.99003 | 4231 ft | 10 kts | 271° |
| 2026-05-06 17:26 | 40.78418 | -111.99117 | 4231 ft | 13 kts | 264° |
| 2026-05-06 17:26 | 40.78411 | -111.99227 | 4231 ft | 11 kts | 267° |
| 2026-05-06 17:27 | 40.78398 | -111.99321 | 4231 ft | 9 kts | 231° |
| 2026-05-06 17:27 | 40.78344 | -111.99335 | 4231 ft | 7 kts | 177° |
| 2026-05-06 17:27 | 40.78295 | -111.99329 | 4231 ft | 9 kts | 173° |
| 2026-05-06 17:27 | 40.78228 | -111.99319 | 4231 ft | 10 kts | 173° |
| 2026-05-06 17:28 | 40.78149 | -111.99309 | 4231 ft | 13 kts | 175° |
| 2026-05-06 17:28 | 40.78055 | -111.99285 | 4259 ft | 14 kts | 166° |
| 2026-05-06 17:28 | 40.77967 | -111.99266 | 4265 ft | 12 kts | 174° |
| 2026-05-06 17:28 | 40.77889 | -111.99256 | 4264 ft | 10 kts | 175° |
| 2026-05-06 17:29 | 40.77802 | -111.99246 | 4264 ft | 16 kts | 175° |
| 2026-05-06 17:29 | 40.77697 | -111.99233 | 4265 ft | 14 kts | 172° |
| 2026-05-06 17:29 | 40.77613 | -111.99198 | 4265 ft | 12 kts | 169° |
| 2026-05-06 17:29 | 40.77539 | -111.99193 | 4265 ft | 10 kts | 192° |
| 2026-05-06 17:30 | 40.77501 | -111.99246 | 4263 ft | 7 kts | 256° |
| 2026-05-06 17:30 | 40.77496 | -111.99321 | 4264 ft | 12 kts | 269° |
| 2026-05-06 17:30 | 40.77519 | -111.99438 | 4265 ft | 12 kts | 274° |
| 2026-05-06 17:30 | 40.77517 | -111.99537 | 4266 ft | 8 kts | 285° |
| 2026-05-06 17:31 | 40.77557 | -111.99552 | 4266 ft | 6 kts | 354° |
| 2026-05-06 17:31 | 40.77697 | -111.99571 | 4265 ft | 50 kts | 354° |
| 2026-05-06 17:31 | 40.78266 | -111.99639 | 4230 ft | 111 kts | 355° |
| 2026-05-06 17:31 | 40.79201 | -111.99750 | 4232 ft | 157 kts | 355° |
| 2026-05-06 17:32 | 40.80388 | -111.99876 | 4477 ft | 175 kts | 354° |
| 2026-05-06 17:32 | 40.81609 | -111.99955 | 5220 ft | 178 kts | 356° |
| 2026-05-06 17:32 | 40.82795 | -112.00438 | 5765 ft | 183 kts | 323° |
| 2026-05-06 17:32 | 40.83543 | -112.01826 | 6032 ft | 197 kts | 287° |
| 2026-05-06 17:33 | 40.83657 | -112.03688 | 6177 ft | 214 kts | 265° |
| 2026-05-06 17:33 | 40.83162 | -112.05637 | 6295 ft | 236 kts | 247° |
| 2026-05-06 17:33 | 40.82444 | -112.07714 | 6459 ft | 261 kts | 246° |
| 2026-05-06 17:33 | 40.81640 | -112.09966 | 6829 ft | 278 kts | 246° |
| 2026-05-06 17:34 | 40.80800 | -112.12294 | 7500 ft | 283 kts | 245° |
| 2026-05-06 17:34 | 40.79948 | -112.14646 | 8220 ft | 286 kts | 248° |
| 2026-05-06 17:34 | 40.79083 | -112.17035 | 8897 ft | 291 kts | 248° |
| 2026-05-06 17:34 | 40.78204 | -112.19470 | 9592 ft | 296 kts | 249° |
| 2026-05-06 17:35 | 40.77311 | -112.21953 | 10218 ft | 305 kts | 249° |
| 2026-05-06 17:35 | 40.76196 | -112.24423 | 10362 ft | 333 kts | 234° |
| 2026-05-06 17:35 | 40.74433 | -112.26562 | 10573 ft | 357 kts | 215° |
| 2026-05-06 17:36 | 40.69585 | -112.28524 | 11626 ft | 376 kts | 189° |
| 2026-05-06 17:36 | 40.66978 | -112.29050 | 12202 ft | 382 kts | 188° |
| 2026-05-06 17:36 | 40.64325 | -112.29584 | 12769 ft | 389 kts | 188° |
| 2026-05-06 17:36 | 40.61627 | -112.30129 | 13332 ft | 396 kts | 188° |
| 2026-05-06 17:37 | 40.58885 | -112.30683 | 13897 ft | 402 kts | 188° |
| 2026-05-06 17:37 | 40.56110 | -112.31334 | 14415 ft | 408 kts | 195° |
| 2026-05-06 17:37 | 40.53389 | -112.32420 | 14998 ft | 410 kts | 199° |
| 2026-05-06 17:37 | 40.50659 | -112.33548 | 15597 ft | 413 kts | 199° |
| 2026-05-06 17:38 | 40.47910 | -112.34677 | 16197 ft | 415 kts | 198° |
| 2026-05-06 17:38 | 40.45148 | -112.35806 | 16791 ft | 417 kts | 199° |
| 2026-05-06 17:38 | 40.42364 | -112.36941 | 17363 ft | 420 kts | 199° |
| 2026-05-06 17:38 | 40.39562 | -112.38084 | 17940 ft | 423 kts | 199° |
| 2026-05-06 17:39 | 40.36746 | -112.39231 | 18478 ft | 425 kts | 199° |
| 2026-05-06 17:39 | 40.33909 | -112.40388 | 18943 ft | 428 kts | 199° |
| 2026-05-06 17:39 | 40.31053 | -112.41549 | 19381 ft | 432 kts | 199° |
| 2026-05-06 17:39 | 40.28175 | -112.42719 | 19814 ft | 435 kts | 199° |
| 2026-05-06 17:40 | 40.25273 | -112.43898 | 20246 ft | 438 kts | 199° |
| 2026-05-06 17:40 | 40.22348 | -112.45088 | 20682 ft | 442 kts | 199° |
| 2026-05-06 17:40 | 40.19407 | -112.46301 | 21071 ft | 445 kts | 201° |
| 2026-05-06 17:40 | 40.16580 | -112.47929 | 21535 ft | 444 kts | 211° |
| 2026-05-06 17:41 | 40.13859 | -112.49858 | 21965 ft | 447 kts | 211° |
| 2026-05-06 17:41 | 40.11111 | -112.51800 | 22388 ft | 450 kts | 211° |
| 2026-05-06 17:41 | 40.08344 | -112.53750 | 22813 ft | 454 kts | 211° |
| 2026-05-06 17:41 | 40.05555 | -112.55711 | 23217 ft | 457 kts | 211° |
| 2026-05-06 17:42 | 40.02747 | -112.57680 | 23641 ft | 460 kts | 211° |
| 2026-05-06 17:42 | 39.99915 | -112.59663 | 23952 ft | 463 kts | 211° |
| 2026-05-06 17:42 | 39.97066 | -112.61657 | 24283 ft | 466 kts | 211° |
| 2026-05-06 17:42 | 39.94198 | -112.63664 | 24616 ft | 469 kts | 211° |
| 2026-05-06 17:43 | 39.91316 | -112.65683 | 24935 ft | 472 kts | 211° |
| 2026-05-06 17:43 | 39.88422 | -112.67711 | 25294 ft | 473 kts | 211° |
| 2026-05-06 17:43 | 39.85552 | -112.69719 | 25624 ft | 476 kts | 211° |
| 2026-05-06 17:43 | 39.82627 | -112.71757 | 25946 ft | 478 kts | 211° |
| 2026-05-06 17:44 | 39.79690 | -112.73803 | 26278 ft | 480 kts | 211° |
| 2026-05-06 17:44 | 39.76734 | -112.75858 | 26596 ft | 483 kts | 211° |
| 2026-05-06 17:44 | 39.73764 | -112.77919 | 26909 ft | 485 kts | 211° |
| 2026-05-06 17:44 | 39.70764 | -112.79953 | 27195 ft | 489 kts | 207° |
| 2026-05-06 17:45 | 39.67577 | -112.81538 | 27492 ft | 493 kts | 197° |
| 2026-05-06 17:45 | 39.64217 | -112.82494 | 27808 ft | 496 kts | 187° |
| 2026-05-06 17:45 | 39.60784 | -112.83006 | 28098 ft | 498 kts | 186° |
| 2026-05-06 17:45 | 39.57332 | -112.83510 | 28404 ft | 500 kts | 186° |
| 2026-05-06 17:46 | 39.53866 | -112.84020 | 28698 ft | 502 kts | 186° |
| 2026-05-06 17:46 | 39.50387 | -112.84538 | 28981 ft | 505 kts | 186° |
| 2026-05-06 17:46 | 39.46887 | -112.85063 | 29265 ft | 507 kts | 186° |
| 2026-05-06 17:46 | 39.43378 | -112.85593 | 29539 ft | 510 kts | 186° |
| 2026-05-06 17:47 | 39.39844 | -112.86125 | 29787 ft | 512 kts | 186° |
| 2026-05-06 17:47 | 39.36299 | -112.86652 | 30004 ft | 514 kts | 186° |
| 2026-05-06 17:47 | 39.32740 | -112.87177 | 30236 ft | 516 kts | 186° |
| 2026-05-06 17:47 | 39.29160 | -112.87703 | 30464 ft | 518 kts | 186° |
| 2026-05-06 17:48 | 39.25576 | -112.88232 | 30696 ft | 520 kts | 186° |
| 2026-05-06 17:48 | 39.21974 | -112.88766 | 30956 ft | 521 kts | 185° |
| 2026-05-06 17:48 | 39.18381 | -112.89300 | 31293 ft | 520 kts | 185° |
| 2026-05-06 17:48 | 39.14788 | -112.89833 | 31621 ft | 520 kts | 185° |
| 2026-05-06 17:49 | 39.11200 | -112.90363 | 31942 ft | 519 kts | 185° |
| 2026-05-06 17:49 | 39.07611 | -112.90892 | 32283 ft | 519 kts | 185° |
| 2026-05-06 17:49 | 39.04027 | -112.91418 | 32626 ft | 519 kts | 185° |
| 2026-05-06 17:49 | 39.00443 | -112.91944 | 32972 ft | 518 kts | 185° |
| 2026-05-06 17:50 | 38.96863 | -112.92471 | 33277 ft | 518 kts | 185° |
| 2026-05-06 17:50 | 38.93285 | -112.92998 | 33607 ft | 517 kts | 185° |
| 2026-05-06 17:50 | 38.89707 | -112.93522 | 33923 ft | 517 kts | 185° |
| 2026-05-06 17:50 | 38.86129 | -112.94043 | 34047 ft | 515 kts | 185° |
| 2026-05-06 17:51 | 38.79079 | -112.95071 | 34059 ft | 507 kts | 185° |
| 2026-05-06 17:51 | 38.72072 | -112.96091 | 34060 ft | 506 kts | 185° |
| 2026-05-06 17:52 | 38.65076 | -112.97115 | 34116 ft | 506 kts | 185° |
| 2026-05-06 17:52 | 38.58077 | -112.98134 | 34143 ft | 506 kts | 184° |
| 2026-05-06 17:53 | 38.51087 | -112.99142 | 34173 ft | 505 kts | 184° |
| 2026-05-06 17:53 | 38.44149 | -113.00147 | 34179 ft | 505 kts | 184° |
| 2026-05-06 17:54 | 38.37182 | -113.01256 | 34180 ft | 506 kts | 190° |
| 2026-05-06 17:54 | 38.30471 | -113.03972 | 34164 ft | 506 kts | 200° |
| 2026-05-06 17:55 | 38.23875 | -113.07115 | 33879 ft | 503 kts | 200° |
| 2026-05-06 17:55 | 38.20606 | -113.08658 | 33650 ft | 500 kts | 200° |
| 2026-05-06 17:55 | 38.17352 | -113.10189 | 33208 ft | 498 kts | 200° |
| 2026-05-06 17:56 | 38.14107 | -113.11719 | 32554 ft | 497 kts | 200° |
| 2026-05-06 17:56 | 38.10871 | -113.13252 | 32135 ft | 494 kts | 200° |
| 2026-05-06 17:56 | 38.07650 | -113.14781 | 31995 ft | 494 kts | 200° |
| 2026-05-06 17:56 | 38.04427 | -113.16311 | 32042 ft | 496 kts | 200° |
| 2026-05-06 17:57 | 37.97963 | -113.19359 | 32040 ft | 496 kts | 200° |
| 2026-05-06 17:57 | 37.91497 | -113.22397 | 32101 ft | 496 kts | 200° |
| 2026-05-06 17:58 | 37.85030 | -113.25430 | 32121 ft | 495 kts | 200° |
| 2026-05-06 17:58 | 37.79665 | -113.27946 | 32129 ft | 495 kts | 200° |
| 2026-05-06 17:59 | 37.73135 | -113.31009 | 32131 ft | 505 kts | 200° |
| 2026-05-06 17:59 | 37.66539 | -113.34091 | 32127 ft | 506 kts | 200° |
| 2026-05-06 18:00 | 37.59928 | -113.37169 | 32092 ft | 506 kts | 200° |
| 2026-05-06 18:00 | 37.53337 | -113.40229 | 32059 ft | 505 kts | 200° |
| 2026-05-06 18:01 | 37.46748 | -113.43292 | 31999 ft | 504 kts | 200° |
| 2026-05-06 18:01 | 37.40162 | -113.46343 | 32010 ft | 504 kts | 199° |
| 2026-05-06 18:02 | 37.33580 | -113.49385 | 32021 ft | 503 kts | 199° |
| 2026-05-06 18:02 | 37.27018 | -113.52417 | 32018 ft | 502 kts | 199° |
| 2026-05-06 18:03 | 37.20521 | -113.55640 | 31718 ft | 502 kts | 204° |
| 2026-05-06 18:03 | 37.17350 | -113.57473 | 31460 ft | 501 kts | 206° |
| 2026-05-06 18:03 | 37.14222 | -113.59388 | 30816 ft | 501 kts | 207° |
| 2026-05-06 18:04 | 37.11101 | -113.61334 | 30132 ft | 501 kts | 207° |
| 2026-05-06 18:04 | 37.07976 | -113.63261 | 29390 ft | 500 kts | 206° |
| 2026-05-06 18:04 | 37.04894 | -113.65118 | 28715 ft | 497 kts | 206° |
| 2026-05-06 18:04 | 37.01770 | -113.66957 | 28025 ft | 495 kts | 205° |
| 2026-05-06 18:05 | 36.98647 | -113.68762 | 27340 ft | 493 kts | 205° |
| 2026-05-06 18:05 | 36.95498 | -113.70571 | 26660 ft | 491 kts | 205° |
| 2026-05-06 18:05 | 36.92406 | -113.72348 | 26051 ft | 487 kts | 205° |
| 2026-05-06 18:05 | 36.89384 | -113.74095 | 25446 ft | 484 kts | 205° |
| 2026-05-06 18:06 | 36.86344 | -113.75864 | 24827 ft | 480 kts | 205° |
| 2026-05-06 18:06 | 36.83328 | -113.77625 | 24232 ft | 477 kts | 205° |
| 2026-05-06 18:06 | 36.80332 | -113.79374 | 23632 ft | 474 kts | 205° |
| 2026-05-06 18:06 | 36.77356 | -113.81110 | 22980 ft | 470 kts | 205° |
| 2026-05-06 18:07 | 36.74415 | -113.82820 | 22430 ft | 463 kts | 206° |
| 2026-05-06 18:07 | 36.71526 | -113.84498 | 21918 ft | 455 kts | 205° |
| 2026-05-06 18:07 | 36.68685 | -113.86148 | 21401 ft | 447 kts | 205° |
| 2026-05-06 18:07 | 36.65886 | -113.87770 | 20911 ft | 440 kts | 205° |
| 2026-05-06 18:08 | 36.63124 | -113.89367 | 20434 ft | 434 kts | 205° |
| 2026-05-06 18:08 | 36.60486 | -113.91130 | 19979 ft | 427 kts | 214° |
| 2026-05-06 18:08 | 36.58174 | -113.93386 | 19513 ft | 419 kts | 225° |
| 2026-05-06 18:08 | 36.56240 | -113.96059 | 19078 ft | 412 kts | 234° |
| 2026-05-06 18:09 | 36.54516 | -113.98879 | 18632 ft | 407 kts | 234° |
| 2026-05-06 18:09 | 36.52801 | -114.01660 | 18155 ft | 404 kts | 234° |
| 2026-05-06 18:09 | 36.51093 | -114.04410 | 17687 ft | 399 kts | 234° |
| 2026-05-06 18:09 | 36.49400 | -114.07126 | 17149 ft | 397 kts | 234° |
| 2026-05-06 18:10 | 36.47713 | -114.09827 | 16674 ft | 393 kts | 234° |
| 2026-05-06 18:10 | 36.46054 | -114.12484 | 16431 ft | 384 kts | 234° |
| 2026-05-06 18:10 | 36.44459 | -114.15036 | 16285 ft | 364 kts | 234° |
| 2026-05-06 18:10 | 36.42941 | -114.17463 | 16055 ft | 350 kts | 234° |
| 2026-05-06 18:11 | 36.41463 | -114.19834 | 15766 ft | 345 kts | 234° |
| 2026-05-06 18:11 | 36.40007 | -114.22173 | 15506 ft | 341 kts | 234° |
| 2026-05-06 18:11 | 36.38562 | -114.24491 | 15261 ft | 339 kts | 234° |
| 2026-05-06 18:11 | 36.37111 | -114.26790 | 15020 ft | 337 kts | 234° |
| 2026-05-06 18:12 | 36.35660 | -114.29071 | 14686 ft | 337 kts | 233° |
| 2026-05-06 18:12 | 36.34202 | -114.31348 | 14280 ft | 337 kts | 233° |
| 2026-05-06 18:12 | 36.32742 | -114.33626 | 13869 ft | 337 kts | 233° |
| 2026-05-06 18:12 | 36.31289 | -114.35890 | 13485 ft | 335 kts | 233° |
| 2026-05-06 18:13 | 36.29847 | -114.38138 | 13094 ft | 329 kts | 233° |
| 2026-05-06 18:13 | 36.28439 | -114.40337 | 12612 ft | 323 kts | 233° |
| 2026-05-06 18:13 | 36.27053 | -114.42509 | 12209 ft | 319 kts | 233° |
| 2026-05-06 18:13 | 36.25682 | -114.44657 | 11816 ft | 317 kts | 234° |
| 2026-05-06 18:14 | 36.24331 | -114.46758 | 11439 ft | 315 kts | 233° |
| 2026-05-06 18:14 | 36.22957 | -114.48868 | 11053 ft | 315 kts | 233° |
| 2026-05-06 18:14 | 36.21581 | -114.50971 | 10672 ft | 314 kts | 233° |
| 2026-05-06 18:14 | 36.20207 | -114.53068 | 10278 ft | 313 kts | 233° |
| 2026-05-06 18:15 | 36.18837 | -114.55159 | 9906 ft | 313 kts | 233° |
| 2026-05-06 18:15 | 36.17477 | -114.57234 | 9539 ft | 309 kts | 233° |
| 2026-05-06 18:15 | 36.16137 | -114.59275 | 9126 ft | 303 kts | 233° |
| 2026-05-06 18:15 | 36.14814 | -114.61291 | 8795 ft | 300 kts | 233° |
| 2026-05-06 18:16 | 36.13505 | -114.63290 | 8627 ft | 299 kts | 233° |
| 2026-05-06 18:16 | 36.12201 | -114.65284 | 8411 ft | 297 kts | 233° |
| 2026-05-06 18:16 | 36.10923 | -114.67237 | 8303 ft | 287 kts | 233° |
| 2026-05-06 18:16 | 36.09694 | -114.69110 | 8185 ft | 275 kts | 233° |
| 2026-05-06 18:17 | 36.08519 | -114.70902 | 8110 ft | 260 kts | 234° |
| 2026-05-06 18:17 | 36.07652 | -114.72788 | 7970 ft | 247 kts | 253° |
| 2026-05-06 18:17 | 36.07319 | -114.74836 | 7717 ft | 241 kts | 271° |
| 2026-05-06 18:17 | 36.07328 | -114.76885 | 7511 ft | 238 kts | 274° |
| 2026-05-06 18:18 | 36.07333 | -114.78930 | 7238 ft | 237 kts | 273° |
| 2026-05-06 18:18 | 36.07337 | -114.80958 | 6938 ft | 235 kts | 273° |
| 2026-05-06 18:18 | 36.07341 | -114.82969 | 6646 ft | 232 kts | 273° |
| 2026-05-06 18:18 | 36.07344 | -114.84951 | 6352 ft | 229 kts | 273° |
| 2026-05-06 18:19 | 36.07348 | -114.86907 | 6046 ft | 226 kts | 272° |
| 2026-05-06 18:19 | 36.07351 | -114.88843 | 5749 ft | 224 kts | 272° |
| 2026-05-06 18:19 | 36.07354 | -114.90765 | 5455 ft | 223 kts | 271° |
| 2026-05-06 18:19 | 36.07357 | -114.92675 | 5165 ft | 222 kts | 271° |
| 2026-05-06 18:20 | 36.07359 | -114.94553 | 4885 ft | 213 kts | 270° |
| 2026-05-06 18:20 | 36.07361 | -114.96308 | 4614 ft | 196 kts | 271° |
| 2026-05-06 18:20 | 36.07362 | -114.97930 | 4385 ft | 180 kts | 270° |
| 2026-05-06 18:20 | 36.07363 | -114.99438 | 4142 ft | 172 kts | 270° |
| 2026-05-06 18:21 | 36.07364 | -115.00903 | 3929 ft | 169 kts | 270° |
| 2026-05-06 18:21 | 36.07365 | -115.02318 | 3719 ft | 160 kts | 270° |
| 2026-05-06 18:21 | 36.07365 | -115.03676 | 3513 ft | 156 kts | 270° |
| 2026-05-06 18:21 | 36.07366 | -115.05015 | 3319 ft | 156 kts | 271° |
| 2026-05-06 18:22 | 36.07366 | -115.06343 | 3122 ft | 155 kts | 271° |
| 2026-05-06 18:22 | 36.07367 | -115.07700 | 2926 ft | 159 kts | 271° |
| 2026-05-06 18:22 | 36.07369 | -115.09076 | 2666 ft | 163 kts | 271° |
| 2026-05-06 18:22 | 36.07364 | -115.10470 | 2458 ft | 163 kts | 270° |
| 2026-05-06 18:23 | 36.07367 | -115.11852 | 2223 ft | 158 kts | 271° |
| 2026-05-06 18:23 | 36.07365 | -115.13167 | 2085 ft | 150 kts | 271° |
| 2026-05-06 18:23 | 36.07368 | -115.14276 | 2104 ft | 93 kts | 270° |
| 2026-05-06 18:23 | 36.07369 | -115.14744 | 2110 ft | 30 kts | 272° |
| 2026-05-06 18:24 | 36.07422 | -115.14945 | 2110 ft | 25 kts | 297° |
| 2026-05-06 18:24 | 36.07504 | -115.15102 | 2104 ft | 19 kts | 313° |
| 2026-05-06 18:24 | 36.07597 | -115.15171 | 2113 ft | 11 kts | 335° |
| 2026-05-06 18:24 | 36.07659 | -115.15207 | 2116 ft | 15 kts | 335° |
| 2026-05-06 18:25 | 36.07771 | -115.15263 | 2103 ft | 16 kts | 2° |
| 2026-05-06 18:25 | 36.07805 | -115.15146 | 2100 ft | 16 kts | 89° |
| 2026-05-06 18:25 | 36.07798 | -115.15014 | 2100 ft | 15 kts | 97° |
| 2026-05-06 18:25 | 36.07790 | -115.14882 | 2100 ft | 18 kts | 93° |
| 2026-05-06 18:26 | 36.07780 | -115.14709 | 2098 ft | 20 kts | 95° |
| 2026-05-06 18:26 | 36.07768 | -115.14535 | 2098 ft | 20 kts | 94° |
| 2026-05-06 18:26 | 36.07757 | -115.14365 | 2097 ft | 20 kts | 95° |
| 2026-05-06 18:26 | 36.07754 | -115.14204 | 2096 ft | 17 kts | 89° |
| 2026-05-06 18:27 | 36.07817 | -115.14159 | 2095 ft | 11 kts | 0° |
| 2026-05-06 18:27 | 36.07889 | -115.14149 | 2095 ft | 10 kts | 24° |
| 2026-05-06 18:27 | 36.07909 | -115.14075 | 2094 ft | 8 kts | 88° |
| 2026-05-06 18:27 | 36.07909 | -115.14072 | 2094 ft | 0 kts | 88° |
| 2026-05-06 18:32 | 36.07909 | -115.14055 | 2094 ft | 6 kts | 88° |
| 2026-05-06 18:32 | 36.07910 | -115.13993 | 2093 ft | 9 kts | 89° |
| 2026-05-06 18:32 | 36.07919 | -115.13910 | 2093 ft | 11 kts | 63° |
| 2026-05-06 18:32 | 36.07977 | -115.13877 | 2093 ft | 6 kts | 318° |
| 2026-05-06 18:33 | 36.08004 | -115.13914 | 2093 ft | 5 kts | 315° |
| 2026-05-06 18:33 | 36.08017 | -115.13930 | 2093 ft | 0 kts | 315° |